Time;durP1;ratioP1;P1;durP2;ratioP2;P2;SDS_P1;SDS_P2;PMS_P1;PMS_P2;Temp;Humidity;BMP_temperature;BMP_pressure;BME280_temperature;BME280_humidity;BME280_pressure;Samples;Min_cycle;Max_cycle;Signal;HPM_P1;HPM_P2
2021/04/08 00:00:31;;;;;;;12.63;4.00;;;2.10;99.90;;;;;;5075343;28;20492;-77
2021/04/08 00:02:59;;;;;;;7.43;3.80;;;2.10;99.90;;;;;;5078961;28;20468;-77
2021/04/08 00:05:26;;;;;;;7.37;3.33;;;2.10;99.90;;;;;;5097141;28;20463;-77
2021/04/08 00:07:53;;;;;;;9.13;3.30;;;2.10;99.90;;;;;;5095501;28;20452;-77
2021/04/08 00:10:20;;;;;;;9.37;2.80;;;2.10;99.90;;;;;;5097222;28;20502;-77
2021/04/08 00:12:48;;;;;;;6.87;2.77;;;2.10;99.90;;;;;;5096888;28;20435;-77
2021/04/08 00:15:17;;;;;;;6.80;3.37;;;2.00;99.90;;;;;;5095591;28;20982;-77
2021/04/08 00:17:44;;;;;;;8.13;3.33;;;2.10;99.90;;;;;;5097559;28;20433;-78
2021/04/08 00:20:16;;;;;;;9.83;3.40;;;2.10;99.90;;;;;;5096411;28;20960;-77
2021/04/08 00:22:43;;;;;;;8.93;3.47;;;2.10;99.90;;;;;;5087471;28;20464;-77
2021/04/08 00:25:13;;;;;;;10.20;2.90;;;2.10;99.90;;;;;;5076046;28;20532;-77
2021/04/08 00:27:41;;;;;;;10.27;3.70;;;2.10;99.90;;;;;;5085321;28;20451;-78
2021/04/08 00:30:11;;;;;;;9.33;2.87;;;2.00;99.90;;;;;;5096323;28;20448;-77
2021/04/08 00:32:38;;;;;;;12.30;3.47;;;2.00;99.90;;;;;;5096549;28;20769;-77
2021/04/08 00:35:07;;;;;;;5.43;2.63;;;2.00;99.90;;;;;;5096321;28;20772;-77
2021/04/08 00:37:34;;;;;;;6.53;2.60;;;2.00;99.90;;;;;;5095010;28;20440;-77
2021/04/08 00:40:06;;;;;;;8.60;3.37;;;1.90;99.90;;;;;;5096587;28;20876;-77
2021/04/08 00:42:33;;;;;;;7.97;3.70;;;1.90;99.90;;;;;;5093174;28;20475;-77
2021/04/08 00:45:00;;;;;;;9.33;3.37;;;1.90;99.90;;;;;;5095145;28;20451;-77
2021/04/08 00:47:28;;;;;;;11.70;3.50;;;1.90;99.90;;;;;;5089803;28;20433;-77
2021/04/08 00:49:55;;;;;;;10.03;3.53;;;1.90;99.90;;;;;;5074544;28;20464;-77
2021/04/08 00:52:23;;;;;;;8.83;3.83;;;1.90;99.90;;;;;;5074631;28;20445;-77
2021/04/08 00:54:51;;;;;;;8.97;3.17;;;1.90;99.90;;;;;;5075807;28;20495;-77
2021/04/08 00:57:18;;;;;;;8.17;3.47;;;1.90;99.90;;;;;;5076073;28;20514;-77
2021/04/08 00:59:46;;;;;;;8.00;4.27;;;1.80;99.90;;;;;;5074430;28;20997;-77
2021/04/08 01:02:13;;;;;;;7.23;3.60;;;1.80;99.90;;;;;;5074273;28;20469;-78
2021/04/08 01:04:42;;;;;;;9.80;3.20;;;1.80;99.90;;;;;;5075493;28;20535;-76
2021/04/08 01:07:09;;;;;;;9.50;2.87;;;1.80;99.90;;;;;;5078520;28;20940;-77
2021/04/08 01:09:37;;;;;;;7.43;3.10;;;1.80;99.90;;;;;;5074459;28;20464;-77
2021/04/08 01:12:04;;;;;;;7.60;3.77;;;1.80;99.90;;;;;;5074508;28;20441;-77
2021/04/08 01:14:32;;;;;;;11.80;3.00;;;1.80;99.90;;;;;;5074248;28;20448;-77
2021/04/08 01:17:06;;;;;;;12.47;3.73;;;1.80;99.90;;;;;;5074162;28;20450;-77
2021/04/08 01:20:14;;;;;;;6.90;3.23;;;1.80;99.90;;;;;;5075269;28;20510;-77
2021/04/08 01:23:16;;;;;;;4.20;2.50;;;1.80;99.90;;;;;;5073922;28;20484;-77
2021/04/08 01:26:25;;;;;;;10.67;3.80;;;1.70;99.90;;;;;;5071454;28;20483;-77
2021/04/08 01:29:01;;;;;;;7.00;3.27;;;1.70;99.90;;;;;;5013175;28;20531;-77
2021/04/08 01:31:30;;;;;;;9.57;3.10;;;1.80;99.90;;;;;;5063230;28;20451;-77
2021/04/08 01:34:04;;;;;;;6.77;3.07;;;1.70;99.90;;;;;;5080870;28;20502;-77
2021/04/08 01:36:33;;;;;;;7.73;3.10;;;1.80;99.90;;;;;;5075265;28;20782;-78
2021/04/08 01:39:03;;;;;;;8.90;2.87;;;1.80;99.90;;;;;;5073631;28;20481;-77
2021/04/08 01:41:36;;;;;;;7.30;2.70;;;1.80;99.90;;;;;;5073650;28;20457;-77
2021/04/08 01:44:05;;;;;;;8.70;2.77;;;1.80;99.90;;;;;;5075065;28;20957;-77
2021/04/08 01:46:36;;;;;;;8.17;2.63;;;1.80;99.90;;;;;;5073554;28;20503;-77
2021/04/08 01:49:06;;;;;;;13.27;4.17;;;1.80;99.90;;;;;;5073631;28;20489;-77
2021/04/08 01:51:36;;;;;;;10.20;2.67;;;1.80;99.90;;;;;;5074617;28;20517;-76
2021/04/08 01:54:07;;;;;;;7.23;2.70;;;1.80;99.90;;;;;;5075363;28;20494;-77
2021/04/08 01:56:37;;;;;;;8.87;3.27;;;1.80;99.90;;;;;;5074827;28;20479;-77
2021/04/08 01:59:05;;;;;;;9.77;3.87;;;1.90;99.90;;;;;;5054603;28;20454;-77
2021/04/08 02:01:34;;;;;;;13.33;3.43;;;1.90;99.90;;;;;;5054733;28;20505;-77
2021/04/08 02:04:02;;;;;;;8.87;2.90;;;1.80;99.90;;;;;;5054672;28;20448;-77
2021/04/08 02:06:30;;;;;;;6.80;2.73;;;1.90;99.90;;;;;;5053227;28;20539;-77
2021/04/08 02:08:59;;;;;;;10.30;3.00;;;1.80;99.90;;;;;;5092715;28;20557;-77
2021/04/08 02:11:27;;;;;;;8.60;3.57;;;1.80;99.90;;;;;;5094836;28;20436;-77
2021/04/08 02:13:57;;;;;;;7.00;3.27;;;1.80;99.90;;;;;;5093554;28;20447;-77
2021/04/08 02:16:25;;;;;;;8.37;3.30;;;1.80;99.90;;;;;;5094813;28;20440;-77
2021/04/08 02:18:57;;;;;;;8.00;3.00;;;1.80;99.90;;;;;;5093268;28;20460;-76
2021/04/08 02:21:26;;;;;;;8.20;2.97;;;1.80;99.90;;;;;;5081766;28;20978;-76
2021/04/08 02:23:54;;;;;;;7.70;3.00;;;1.80;99.90;;;;;;5073869;28;20429;-76
2021/04/08 02:26:23;;;;;;;10.10;3.07;;;1.90;99.90;;;;;;5072991;28;20195;-77
2021/04/08 02:28:51;;;;;;;6.30;2.70;;;1.90;99.90;;;;;;5076457;28;20519;-77
2021/04/08 02:31:19;;;;;;;6.70;2.50;;;1.90;99.90;;;;;;5077561;28;20436;-76
2021/04/08 02:33:47;;;;;;;7.93;3.00;;;1.80;99.90;;;;;;5092748;28;20444;-77
2021/04/08 02:36:16;;;;;;;7.80;3.00;;;1.90;99.90;;;;;;5094037;28;20189;-77
2021/04/08 02:38:44;;;;;;;9.50;2.33;;;1.90;99.90;;;;;;5093841;28;20493;-76
2021/04/08 02:41:12;;;;;;;4.30;2.43;;;1.90;99.90;;;;;;5092706;28;20448;-77
2021/04/08 02:43:39;;;;;;;5.87;2.70;;;1.90;99.90;;;;;;5092096;28;20448;-77
2021/04/08 02:46:07;;;;;;;7.87;3.20;;;1.80;99.90;;;;;;5092185;28;20452;-77
2021/04/08 02:48:35;;;;;;;6.20;2.63;;;1.80;99.90;;;;;;5094026;28;20452;-76
2021/04/08 02:51:08;;;;;;;8.33;2.17;;;1.80;99.90;;;;;;5087322;28;20440;-76
2021/04/08 02:53:44;;;;;;;7.77;2.90;;;1.80;99.90;;;;;;5073818;28;20960;-77
2021/04/08 02:56:16;;;;;;;7.53;2.27;;;1.80;99.90;;;;;;5072447;28;20433;-77
2021/04/08 02:58:45;;;;;;;12.37;3.70;;;1.80;99.90;;;;;;5074062;28;20484;-77
2021/04/08 03:01:16;;;;;;;8.03;2.80;;;1.70;99.90;;;;;;5053298;28;20438;-77
2021/04/08 03:03:49;;;;;;;7.50;3.00;;;1.80;99.90;;;;;;5052291;28;20855;-77
2021/04/08 03:06:17;;;;;;;9.00;3.87;;;1.70;99.90;;;;;;5053548;28;20869;-77
2021/04/08 03:08:49;;;;;;;6.07;2.77;;;1.70;99.90;;;;;;5052116;28;20523;-77
2021/04/08 03:11:21;;;;;;;6.43;2.83;;;1.70;99.90;;;;;;5052323;28;20438;-77
2021/04/08 03:13:51;;;;;;;7.87;2.70;;;1.70;99.90;;;;;;5053471;28;20410;-77
2021/04/08 03:16:21;;;;;;;5.33;2.53;;;1.70;99.90;;;;;;5052583;28;20507;-77
2021/04/08 03:18:51;;;;;;;10.20;3.13;;;1.70;99.90;;;;;;5066043;28;20530;-76
2021/04/08 03:21:19;;;;;;;7.13;2.87;;;1.70;99.90;;;;;;5073716;28;20987;-75
2021/04/08 03:23:48;;;;;;;7.43;2.60;;;1.70;99.90;;;;;;5087942;28;20440;-75
2021/04/08 03:26:17;;;;;;;5.47;2.40;;;1.70;99.90;;;;;;5092102;28;20439;-75
2021/04/08 03:28:45;;;;;;;5.33;2.77;;;1.70;99.90;;;;;;5073608;28;21027;-75
2021/04/08 03:31:13;;;;;;;5.37;2.60;;;1.70;99.90;;;;;;5073209;28;20437;-75
2021/04/08 03:33:42;;;;;;;7.37;2.67;;;1.70;99.90;;;;;;5073428;28;20433;-76
2021/04/08 03:36:11;;;;;;;7.03;2.40;;;1.70;99.90;;;;;;5073207;28;20480;-75
2021/04/08 03:38:38;;;;;;;5.37;2.00;;;1.60;99.90;;;;;;5074939;28;20567;-75
2021/04/08 03:41:07;;;;;;;5.93;2.80;;;1.60;99.90;;;;;;5092247;28;20505;-75
2021/04/08 03:43:37;;;;;;;9.40;3.00;;;1.60;99.90;;;;;;5091977;28;21053;-75
2021/04/08 03:46:07;;;;;;;6.73;3.07;;;1.60;99.90;;;;;;5092055;28;20519;-75
2021/04/08 03:48:35;;;;;;;6.53;2.73;;;1.60;99.90;;;;;;5093120;28;20456;-75
2021/04/08 03:51:03;;;;;;;6.40;3.17;;;1.60;99.90;;;;;;5092560;28;20763;-74
2021/04/08 03:53:33;;;;;;;9.67;2.80;;;1.60;99.90;;;;;;5091771;28;20489;-74
2021/04/08 03:56:01;;;;;;;6.33;2.30;;;1.60;99.90;;;;;;5094544;28;20428;-74
2021/04/08 03:58:30;;;;;;;8.57;2.70;;;1.60;99.90;;;;;;5096690;28;20949;-75
2021/04/08 04:01:00;;;;;;;6.17;2.90;;;1.60;99.90;;;;;;5097629;28;20436;-74
2021/04/08 04:03:28;;;;;;;7.43;2.87;;;1.50;99.90;;;;;;5093747;28;20461;-75
2021/04/08 04:05:55;;;;;;;6.97;2.63;;;1.50;99.90;;;;;;5087997;28;20447;-75
2021/04/08 04:08:23;;;;;;;7.47;2.83;;;1.50;99.90;;;;;;5095471;28;20479;-74
2021/04/08 04:10:50;;;;;;;9.97;2.80;;;1.60;99.90;;;;;;5095451;28;20953;-74
2021/04/08 04:13:18;;;;;;;7.43;2.73;;;1.60;99.90;;;;;;5095429;28;20471;-74
2021/04/08 04:15:49;;;;;;;8.17;2.60;;;1.60;99.90;;;;;;5095577;28;20444;-74
2021/04/08 04:18:19;;;;;;;7.90;3.63;;;1.60;99.90;;;;;;5096031;28;20797;-75
2021/04/08 04:20:47;;;;;;;10.10;3.83;;;1.60;99.90;;;;;;5096231;28;20440;-75
2021/04/08 04:23:15;;;;;;;8.40;3.53;;;1.60;99.90;;;;;;5093645;28;20469;-75
2021/04/08 04:25:42;;;;;;;9.03;3.10;;;1.60;99.90;;;;;;5097772;28;20467;-75
2021/04/08 04:28:09;;;;;;;11.53;5.33;;;1.60;99.90;;;;;;5096947;28;20473;-74
2021/04/08 04:30:36;;;;;;;9.03;3.13;;;1.60;99.90;;;;;;5098225;28;20466;-74
2021/04/08 04:33:05;;;;;;;7.90;3.87;;;1.60;99.90;;;;;;5093214;28;20453;-74
2021/04/08 04:35:32;;;;;;;9.00;3.50;;;1.60;99.90;;;;;;5076844;28;20539;-74
2021/04/08 04:37:59;;;;;;;8.43;3.57;;;1.60;99.90;;;;;;5078021;28;20429;-74
2021/04/08 04:40:26;;;;;;;11.27;3.67;;;1.60;99.90;;;;;;5076221;28;20547;-74
2021/04/08 04:42:54;;;;;;;7.80;3.20;;;1.60;99.90;;;;;;5082796;28;20972;-75
2021/04/08 04:45:21;;;;;;;12.23;3.83;;;1.60;99.90;;;;;;5076907;28;20537;-74
2021/04/08 04:47:48;;;;;;;6.30;3.10;;;1.60;99.90;;;;;;5076679;28;20445;-74
2021/04/08 04:50:16;;;;;;;13.87;4.40;;;1.60;99.90;;;;;;5075130;28;20527;-75
2021/04/08 04:52:44;;;;;;;7.83;3.40;;;1.60;99.90;;;;;;5088862;28;20444;-75
2021/04/08 04:55:12;;;;;;;7.80;3.87;;;1.60;99.90;;;;;;5096505;28;20470;-75
2021/04/08 04:57:39;;;;;;;8.13;3.63;;;1.60;99.90;;;;;;5096773;28;20501;-75
2021/04/08 05:00:08;;;;;;;10.17;3.20;;;1.60;99.90;;;;;;5086609;28;20479;-75
2021/04/08 05:02:35;;;;;;;6.00;3.33;;;1.60;99.90;;;;;;5077897;28;20549;-75
2021/04/08 05:05:03;;;;;;;7.40;3.40;;;1.60;99.90;;;;;;5076315;28;20456;-75
2021/04/08 05:07:31;;;;;;;11.50;4.20;;;1.60;99.90;;;;;;5091943;28;20441;-75
2021/04/08 05:09:58;;;;;;;7.13;3.37;;;1.60;99.90;;;;;;5076122;28;20473;-75
2021/04/08 05:12:26;;;;;;;9.53;3.30;;;1.60;99.90;;;;;;5076168;28;20437;-74
2021/04/08 05:14:53;;;;;;;7.60;3.20;;;1.60;99.90;;;;;;5077669;28;20961;-74
2021/04/08 05:17:20;;;;;;;8.27;2.73;;;1.60;99.90;;;;;;5078141;28;20910;-74
2021/04/08 05:19:48;;;;;;;6.43;3.20;;;1.60;99.90;;;;;;5076505;28;20850;-74
2021/04/08 05:22:17;;;;;;;6.60;2.73;;;1.60;99.90;;;;;;5076650;28;20568;-74
2021/04/08 05:24:45;;;;;;;12.30;3.30;;;1.60;99.90;;;;;;5077557;28;20439;-74
2021/04/08 05:27:13;;;;;;;6.13;2.50;;;1.60;99.90;;;;;;5075262;28;20998;-74
2021/04/08 05:29:44;;;;;;;7.63;3.10;;;1.60;99.90;;;;;;5074118;28;20492;-74
2021/04/08 05:32:12;;;;;;;11.20;3.90;;;1.60;99.90;;;;;;5075624;28;20512;-74
2021/04/08 05:34:40;;;;;;;9.03;3.27;;;1.70;99.90;;;;;;5074346;28;20502;-74
2021/04/08 05:37:07;;;;;;;9.43;3.70;;;1.70;99.90;;;;;;5075127;28;20437;-75
2021/04/08 05:39:35;;;;;;;9.63;3.57;;;1.80;99.90;;;;;;5074301;28;20463;-75
2021/04/08 05:42:03;;;;;;;6.57;2.43;;;1.80;99.90;;;;;;5073781;28;20476;-74
2021/04/08 05:44:32;;;;;;;6.83;3.77;;;1.90;99.90;;;;;;5073470;28;20437;-74
2021/04/08 05:47:04;;;;;;;7.37;3.17;;;1.90;99.90;;;;;;5075154;28;20798;-75
2021/04/08 05:49:32;;;;;;;7.23;3.90;;;2.00;99.90;;;;;;5073243;28;21014;-75
2021/04/08 05:51:59;;;;;;;6.30;3.47;;;2.00;99.90;;;;;;5074955;28;20437;-74
2021/04/08 05:54:26;;;;;;;6.40;2.90;;;2.10;99.90;;;;;;5073079;28;20445;-74
2021/04/08 05:56:53;;;;;;;8.53;3.13;;;2.10;99.90;;;;;;5073340;28;20823;-74
2021/04/08 05:59:21;;;;;;;9.50;2.87;;;2.20;99.90;;;;;;5074211;28;20453;-75
2021/04/08 06:01:49;;;;;;;6.73;2.97;;;2.20;99.90;;;;;;5074502;28;20490;-74
2021/04/08 06:04:16;;;;;;;5.30;2.80;;;2.20;99.90;;;;;;5072839;28;20441;-74
2021/04/08 06:06:43;;;;;;;8.20;3.20;;;2.30;99.90;;;;;;5073064;28;20468;-74
2021/04/08 06:09:11;;;;;;;11.00;3.90;;;2.30;99.90;;;;;;5074266;28;20453;-74
2021/04/08 06:11:38;;;;;;;7.10;2.80;;;2.30;99.90;;;;;;5074399;28;20425;-75
2021/04/08 06:14:06;;;;;;;7.80;3.10;;;2.40;99.90;;;;;;5074621;28;20862;-74
2021/04/08 06:16:35;;;;;;;7.10;3.25;;;2.40;99.90;;;;;;5074148;28;20442;-74
2021/04/08 06:19:02;;;;;;;8.47;3.50;;;2.40;99.90;;;;;;5072553;28;20638;-75
2021/04/08 06:21:30;;;;;;;10.80;3.33;;;2.50;99.90;;;;;;5074238;28;20494;-74
2021/04/08 06:23:59;;;;;;;6.10;2.50;;;2.60;99.90;;;;;;5073941;28;20560;-74
2021/04/08 06:26:26;;;;;;;7.33;2.67;;;2.60;99.90;;;;;;5073800;28;20455;-74
2021/04/08 06:28:53;;;;;;;6.50;3.20;;;2.60;99.90;;;;;;5072631;28;20970;-75
2021/04/08 06:31:20;;;;;;;6.43;2.77;;;2.60;99.90;;;;;;5073933;28;20441;-75
2021/04/08 06:33:48;;;;;;;13.10;3.30;;;2.70;99.90;;;;;;5073954;28;20461;-75
2021/04/08 06:36:16;;;;;;;5.77;2.27;;;2.70;99.90;;;;;;5073889;28;20429;-74
2021/04/08 06:38:44;;;;;;;8.57;3.00;;;2.70;99.90;;;;;;5074060;28;20460;-75
2021/04/08 06:41:11;;;;;;;7.67;2.17;;;2.80;99.90;;;;;;5073301;28;20511;-75
2021/04/08 06:43:41;;;;;;;6.40;2.40;;;2.80;99.90;;;;;;5072491;28;20644;-74
2021/04/08 06:46:09;;;;;;;7.17;2.57;;;2.80;99.90;;;;;;5073849;28;20833;-74
2021/04/08 06:48:48;;;;;;;6.80;2.70;;;2.90;99.90;;;;;;5072360;28;21043;-74
2021/04/08 06:51:19;;;;;;;8.07;2.60;;;2.90;99.90;;;;;;5073852;28;20413;-74
2021/04/08 06:53:48;;;;;;;8.37;2.80;;;2.90;99.90;;;;;;5072656;28;20442;-74
2021/04/08 06:56:15;;;;;;;6.33;2.57;;;3.00;99.90;;;;;;5074357;28;20414;-75
2021/04/08 06:58:43;;;;;;;7.43;2.57;;;2.90;99.90;;;;;;5072594;28;20974;-75
2021/04/08 07:01:31;;;;;;;7.23;2.73;;;3.00;99.90;;;;;;5072674;28;20437;-75
2021/04/08 07:03:59;;;;;;;8.00;3.17;;;3.10;99.90;;;;;;5072491;28;20479;-75
2021/04/08 07:06:28;;;;;;;5.33;1.90;;;3.10;99.90;;;;;;5072274;28;20445;-75
2021/04/08 07:08:57;;;;;;;7.77;2.77;;;3.20;99.90;;;;;;5073586;28;20453;-75
2021/04/08 07:11:24;;;;;;;5.40;2.43;;;3.20;99.90;;;;;;5073560;28;20487;-75
2021/04/08 07:13:55;;;;;;;4.70;2.37;;;3.30;99.90;;;;;;5072186;28;20510;-75
2021/04/08 07:16:23;;;;;;;6.20;2.37;;;3.40;99.90;;;;;;5072161;28;20787;-74
2021/04/08 07:18:54;;;;;;;6.60;2.90;;;3.50;99.90;;;;;;5072286;28;20552;-75
2021/04/08 07:21:22;;;;;;;7.97;2.10;;;3.50;99.90;;;;;;5073224;28;20418;-75
2021/04/08 07:24:15;;;;;;;7.60;2.40;;;3.60;99.90;;;;;;5073047;28;20472;-75
2021/04/08 07:27:00;;;;;;;6.03;3.20;;;3.60;99.90;;;;;;5073142;28;20472;-74
2021/04/08 07:29:52;;;;;;;6.90;2.60;;;3.70;99.90;;;;;;5071979;28;20465;-74
2021/04/08 07:32:24;;;;;;;9.17;2.50;;;3.80;99.90;;;;;;5077171;28;20457;-75
2021/04/08 07:34:54;;;;;;;6.77;2.40;;;3.90;99.90;;;;;;5077230;28;20425;-75
2021/04/08 07:37:27;;;;;;;8.00;2.20;;;4.00;99.90;;;;;;5077670;28;20433;-74
2021/04/08 07:39:56;;;;;;;6.00;2.67;;;4.10;99.90;;;;;;5077414;28;20456;-75
2021/04/08 07:42:30;;;;;;;10.60;2.47;;;4.20;99.90;;;;;;5077060;28;20520;-75
2021/04/08 07:44:59;;;;;;;9.27;2.60;;;4.30;99.90;;;;;;5075822;28;20445;-75
2021/04/08 07:47:28;;;;;;;5.40;2.27;;;4.50;99.90;;;;;;5075996;28;20441;-74
2021/04/08 07:50:10;;;;;;;12.43;2.83;;;4.60;99.90;;;;;;5076909;28;20445;-74
2021/04/08 07:52:40;;;;;;;7.77;1.90;;;4.70;99.90;;;;;;5076995;28;20421;-74
2021/04/08 07:55:13;;;;;;;3.80;1.97;;;4.80;99.90;;;;;;5075564;28;20437;-74
2021/04/08 07:57:52;;;;;;;5.90;2.00;;;4.80;99.90;;;;;;5076839;28;20891;-74
2021/04/08 08:00:21;;;;;;;4.40;2.10;;;4.80;99.90;;;;;;5076776;28;20547;-75
2021/04/08 08:02:50;;;;;;;4.73;1.80;;;4.80;99.90;;;;;;5076669;28;20480;-75
2021/04/08 08:05:23;;;;;;;6.20;3.00;;;4.80;99.90;;;;;;5075459;28;20861;-75
2021/04/08 08:07:51;;;;;;;6.07;2.57;;;4.90;99.90;;;;;;5076842;28;20821;-75
2021/04/08 08:10:22;;;;;;;4.33;2.27;;;5.00;99.90;;;;;;5075406;28;20468;-75
2021/04/08 08:12:52;;;;;;;5.80;2.23;;;5.00;99.90;;;;;;5075359;28;20498;-75
2021/04/08 08:15:26;;;;;;;4.07;1.60;;;5.00;99.90;;;;;;5077423;28;20425;-74
2021/04/08 08:17:56;;;;;;;4.90;1.90;;;5.10;99.90;;;;;;5077236;28;20845;-74
2021/04/08 08:20:24;;;;;;;5.43;2.07;;;5.20;99.90;;;;;;5076315;28;20492;-75
2021/04/08 08:22:52;;;;;;;2.43;1.60;;;5.30;99.90;;;;;;5074863;28;20465;-75
2021/04/08 08:25:28;;;;;;;4.37;1.53;;;5.30;99.90;;;;;;5076464;28;20426;-75
2021/04/08 08:27:57;;;;;;;5.00;1.97;;;5.40;99.90;;;;;;5076163;28;20449;-75
2021/04/08 08:30:30;;;;;;;6.17;2.23;;;5.40;99.90;;;;;;5076007;28;20457;-75
2021/04/08 08:33:06;;;;;;;10.97;2.23;;;5.50;99.90;;;;;;5074860;28;20442;-75
2021/04/08 08:35:34;;;;;;;3.37;1.40;;;5.60;99.90;;;;;;5076438;28;20449;-75
2021/04/08 08:38:24;;;;;;;5.30;1.83;;;5.70;99.90;;;;;;5074715;28;20549;-75
2021/04/08 08:40:53;;;;;;;6.20;2.13;;;5.80;99.90;;;;;;5069976;28;20797;-75
2021/04/08 08:43:23;;;;;;;2.23;1.40;;;5.80;99.90;;;;;;5073055;28;20564;-75
2021/04/08 08:45:50;;;;;;;4.20;1.50;;;6.00;99.90;;;;;;5074321;28;20449;-75
2021/04/08 08:48:19;;;;;;;5.37;1.70;;;6.10;99.90;;;;;;5075429;28;20414;-75
2021/04/08 08:50:51;;;;;;;5.47;1.60;;;6.30;99.90;;;;;;5075443;28;20483;-74
2021/04/08 08:53:19;;;;;;;5.80;1.40;;;6.40;99.90;;;;;;5075373;28;20791;-74
2021/04/08 08:55:47;;;;;;;3.23;1.63;;;6.50;99.90;;;;;;5075626;28;20494;-74
2021/04/08 08:58:15;;;;;;;3.20;1.30;;;6.60;99.90;;;;;;5075223;28;20510;-75
2021/04/08 09:00:42;;;;;;;4.10;2.70;;;6.60;99.90;;;;;;5075866;28;20437;-74
2021/04/08 09:03:09;;;;;;;4.90;1.27;;;6.70;99.90;;;;;;5076268;28;21053;-74
2021/04/08 09:05:38;;;;;;;3.63;1.30;;;6.70;99.90;;;;;;5075835;28;20418;-75
2021/04/08 09:08:12;;;;;;;5.60;1.60;;;6.80;99.90;;;;;;5075732;28;20491;-75
2021/04/08 09:10:55;;;;;;;5.27;1.70;;;6.80;99.90;;;;;;5075623;28;20432;-75
2021/04/08 09:13:24;;;;;;;5.07;2.03;;;6.90;99.90;;;;;;5075375;28;20461;-74
2021/04/08 09:15:52;;;;;;;6.07;2.00;;;6.90;99.90;;;;;;5075558;28;20926;-74
2021/04/08 09:18:21;;;;;;;3.10;1.30;;;6.90;99.90;;;;;;5075634;28;20795;-74
2021/04/08 09:20:53;;;;;;;4.83;1.83;;;7.00;99.90;;;;;;5075950;28;20953;-74
2021/04/08 09:23:23;;;;;;;3.00;1.60;;;7.10;99.90;;;;;;5074196;28;20452;-74
2021/04/08 09:25:53;;;;;;;6.57;1.30;;;7.20;99.90;;;;;;5075284;28;20197;-74
2021/04/08 09:28:21;;;;;;;5.77;1.40;;;7.20;99.90;;;;;;5073801;28;20544;-75
2021/04/08 09:31:03;;;;;;;2.90;1.60;;;7.20;99.90;;;;;;5075454;28;20529;-75
2021/04/08 09:33:59;;;;;;;3.60;1.83;;;7.20;99.90;;;;;;5074020;28;20525;-75
2021/04/08 09:36:41;;;;;;;5.10;2.00;;;7.30;99.90;;;;;;5073702;28;20468;-75
2021/04/08 09:39:29;;;;;;;3.60;1.57;;;7.30;99.90;;;;;;5074877;28;21007;-74
2021/04/08 09:42:01;;;;;;;5.10;1.60;;;7.20;99.90;;;;;;5074792;28;20449;-74
2021/04/08 09:44:31;;;;;;;4.10;1.80;;;7.30;99.90;;;;;;5073513;28;20461;-75
2021/04/08 09:47:02;;;;;;;5.50;1.97;;;7.30;99.90;;;;;;5075257;28;20487;-75
2021/04/08 09:49:50;;;;;;;3.17;1.50;;;7.40;99.90;;;;;;5073181;28;20472;-75
2021/04/08 09:52:20;;;;;;;3.10;1.40;;;7.40;99.90;;;;;;5074597;28;20413;-74
2021/04/08 09:54:55;;;;;;;4.80;1.50;;;7.40;99.90;;;;;;5072786;28;20496;-74
2021/04/08 09:57:37;;;;;;;4.23;1.70;;;7.50;99.90;;;;;;5073258;28;20444;-74
2021/04/08 10:00:08;;;;;;;3.50;2.30;;;7.50;99.90;;;;;;5074391;28;20515;-75
2021/04/08 10:02:57;;;;;;;4.50;1.73;;;7.50;99.90;;;;;;5074665;28;20484;-75
2021/04/08 10:05:30;;;;;;;3.77;1.70;;;7.50;99.90;;;;;;5072908;28;20449;-75
2021/04/08 10:08:04;;;;;;;5.40;1.90;;;7.50;99.90;;;;;;5074387;28;20521;-75
2021/04/08 10:10:44;;;;;;;5.00;1.80;;;7.50;99.90;;;;;;5074128;28;20502;-75
2021/04/08 10:13:20;;;;;;;4.83;1.73;;;7.50;99.90;;;;;;5074164;28;20458;-75
2021/04/08 10:15:48;;;;;;;5.53;1.57;;;7.50;99.90;;;;;;5074170;28;20468;-75
2021/04/08 10:18:28;;;;;;;3.83;1.33;;;7.40;99.90;;;;;;5073928;28;20432;-75
2021/04/08 10:20:57;;;;;;;3.93;1.80;;;7.40;99.90;;;;;;5074447;28;20417;-75
2021/04/08 10:23:36;;;;;;;4.03;1.70;;;7.40;99.90;;;;;;5073942;28;20496;-75
2021/04/08 10:26:07;;;;;;;5.77;1.80;;;7.40;99.90;;;;;;5072740;28;20979;-74
2021/04/08 10:28:40;;;;;;;5.60;2.07;;;7.40;99.90;;;;;;5073809;28;20880;-75
2021/04/08 10:31:15;;;;;;;4.00;1.93;;;7.40;99.90;;;;;;5073988;28;20472;-75
2021/04/08 10:33:44;;;;;;;4.23;2.13;;;7.40;99.90;;;;;;5073839;28;20436;-74
2021/04/08 10:36:27;;;;;;;2.80;1.77;;;7.50;99.90;;;;;;5073836;28;20457;-74
2021/04/08 10:39:07;;;;;;;5.33;1.60;;;7.40;99.90;;;;;;5072764;28;20519;-75
2021/04/08 10:41:35;;;;;;;7.63;3.43;;;7.40;99.90;;;;;;5074413;28;20448;-75
2021/04/08 10:44:22;;;;;;;6.17;2.20;;;7.50;99.90;;;;;;5072285;28;20472;-75
2021/04/08 10:46:50;;;;;;;6.27;1.70;;;7.40;99.90;;;;;;5072452;28;20434;-75
2021/04/08 10:49:24;;;;;;;4.50;1.90;;;7.40;99.90;;;;;;5072105;28;20465;-75
2021/04/08 10:51:53;;;;;;;4.27;1.63;;;7.50;99.90;;;;;;5073935;28;20417;-75
2021/04/08 10:54:26;;;;;;;3.60;1.77;;;7.50;99.90;;;;;;5073635;28;20440;-75
2021/04/08 10:56:54;;;;;;;5.63;1.70;;;7.60;99.90;;;;;;5073549;28;20816;-75
2021/04/08 10:59:25;;;;;;;6.97;1.77;;;7.60;99.90;;;;;;5072154;28;20473;-75
2021/04/08 11:01:54;;;;;;;4.77;1.50;;;7.70;99.90;;;;;;5073728;28;20442;-75
2021/04/08 11:04:25;;;;;;;3.23;1.47;;;7.70;99.90;;;;;;5072180;28;21051;-75
2021/04/08 11:06:57;;;;;;;4.70;1.63;;;7.80;99.90;;;;;;5072947;28;20524;-75
2021/04/08 11:09:27;;;;;;;5.67;1.40;;;7.90;99.90;;;;;;5072360;28;20465;-75
2021/04/08 11:11:56;;;;;;;6.20;1.80;;;8.00;99.90;;;;;;5073326;28;20504;-75
2021/04/08 11:14:25;;;;;;;2.80;1.70;;;8.00;99.90;;;;;;5072950;28;20521;-75
2021/04/08 11:16:55;;;;;;;2.13;1.47;;;8.10;99.90;;;;;;5073290;28;20435;-75
2021/04/08 11:19:25;;;;;;;5.93;1.80;;;8.20;99.90;;;;;;5071398;28;20465;-75
2021/04/08 11:21:54;;;;;;;5.80;1.63;;;8.30;99.90;;;;;;5073094;28;20445;-75
2021/04/08 11:24:21;;;;;;;2.57;1.47;;;8.40;99.90;;;;;;5073109;28;20491;-75
2021/04/08 11:26:50;;;;;;;4.20;1.80;;;8.40;99.90;;;;;;5072666;28;20438;-75
2021/04/08 11:29:23;;;;;;;3.67;1.67;;;8.50;99.90;;;;;;5073845;28;20206;-75
2021/04/08 11:32:01;;;;;;;2.50;1.70;;;8.60;99.90;;;;;;5073441;28;20487;-75
2021/04/08 11:34:40;;;;;;;2.90;1.93;;;8.50;99.90;;;;;;5072590;28;20444;-75
2021/04/08 11:37:08;;;;;;;2.88;1.38;;;8.50;99.90;;;;;;5070643;28;20515;-74
2021/04/08 11:39:35;;;;;;;3.67;1.93;;;8.60;99.60;;;;;;5072852;28;20221;-75
2021/04/08 11:42:21;;;;;;;5.00;2.20;;;8.70;99.90;;;;;;5072968;28;20977;-75
2021/04/08 11:44:49;;;;;;;2.90;1.93;;;8.80;99.90;;;;;;5072563;28;20453;-75
2021/04/08 11:47:19;;;;;;;3.17;1.13;;;8.80;99.90;;;;;;5072646;28;20437;-75
2021/04/08 11:49:49;;;;;;;5.43;2.53;;;8.80;99.90;;;;;;5072487;28;20452;-75
2021/04/08 11:52:20;;;;;;;3.97;1.77;;;8.80;99.90;;;;;;5071349;28;20437;-75
2021/04/08 11:55:02;;;;;;;3.37;1.97;;;8.70;99.70;;;;;;5072814;28;20490;-75
2021/04/08 11:57:29;;;;;;;4.40;1.70;;;8.60;99.40;;;;;;5071641;28;20448;-75
2021/04/08 12:00:07;;;;;;;3.80;1.40;;;8.50;99.30;;;;;;5071754;28;20465;-75
2021/04/08 12:02:36;;;;;;;5.70;2.27;;;8.50;99.20;;;;;;5071673;28;20502;-75
2021/04/08 12:05:09;;;;;;;5.60;2.10;;;8.40;99.20;;;;;;5071558;28;20485;-74
2021/04/08 12:07:43;;;;;;;3.30;1.77;;;8.40;99.30;;;;;;5072906;28;20478;-74
2021/04/08 12:10:24;;;;;;;2.70;1.73;;;8.30;99.00;;;;;;5072928;28;20488;-75
2021/04/08 12:12:56;;;;;;;3.20;1.60;;;8.30;99.00;;;;;;5073069;28;20463;-75
2021/04/08 12:15:36;;;;;;;4.73;1.80;;;8.20;99.00;;;;;;5071612;28;20799;-75
2021/04/08 12:18:10;;;;;;;2.80;1.80;;;8.20;99.00;;;;;;5076264;28;20901;-75
2021/04/08 12:20:39;;;;;;;3.27;1.60;;;8.10;99.00;;;;;;5076625;28;20508;-75
2021/04/08 12:23:11;;;;;;;6.23;2.07;;;8.20;99.10;;;;;;5076522;28;20460;-75
2021/04/08 12:25:44;;;;;;;3.73;1.87;;;8.20;99.10;;;;;;5076708;28;20424;-75
2021/04/08 12:28:12;;;;;;;2.30;1.63;;;8.20;99.10;;;;;;5076142;28;21011;-76
2021/04/08 12:30:47;;;;;;;4.53;2.07;;;8.20;99.00;;;;;;5075066;28;20911;-75
2021/04/08 12:33:18;;;;;;;4.37;1.80;;;8.20;98.90;;;;;;5076210;28;20418;-75
2021/04/08 12:35:48;;;;;;;3.30;2.20;;;8.20;98.70;;;;;;5074884;28;20437;-75
2021/04/08 12:38:17;;;;;;;2.33;1.60;;;8.10;98.70;;;;;;5074747;28;20456;-75
2021/04/08 12:40:46;;;;;;;2.50;2.03;;;8.10;98.60;;;;;;5076626;28;20503;-75
2021/04/08 12:43:13;;;;;;;4.73;1.70;;;8.10;98.30;;;;;;5076426;28;20475;-75
2021/04/08 12:45:41;;;;;;;4.40;1.87;;;8.00;98.20;;;;;;5076204;28;20485;-75
2021/04/08 12:48:09;;;;;;;5.97;2.33;;;8.00;98.20;;;;;;5075884;28;20437;-75
2021/04/08 12:50:40;;;;;;;3.83;2.17;;;7.90;98.20;;;;;;5074379;28;20498;-75
2021/04/08 12:53:09;;;;;;;3.77;2.67;;;7.90;98.30;;;;;;5075880;28;20760;-75
2021/04/08 12:55:38;;;;;;;4.70;3.03;;;7.90;98.30;;;;;;5075834;28;20482;-75
2021/04/08 12:58:10;;;;;;;7.03;4.77;;;7.90;98.40;;;;;;5074677;28;20445;-75
2021/04/08 13:00:37;;;;;;;8.10;3.10;;;7.90;98.50;;;;;;5074714;28;20491;-75
2021/04/08 13:03:06;;;;;;;4.20;2.80;;;7.90;98.40;;;;;;5075846;28;20441;-75
2021/04/08 13:05:33;;;;;;;5.67;3.97;;;7.90;98.40;;;;;;5074311;28;20487;-75
2021/04/08 13:08:01;;;;;;;4.40;3.03;;;7.90;98.40;;;;;;5074254;28;20450;-75
2021/04/08 13:10:29;;;;;;;4.73;3.07;;;7.90;98.50;;;;;;5075420;28;20448;-75
2021/04/08 13:12:57;;;;;;;6.63;3.40;;;8.00;98.50;;;;;;5074070;28;20458;-75